sensor_id;sensor_type;location;lat;lon;timestamp;P1;durP1;ratioP1;P2;durP2;ratioP2
10805;SDS011;5455;53.224;6.000;2023-04-24T00:02:17;2.20;;;1.60;;
10805;SDS011;5455;53.224;6.000;2023-04-24T00:04:45;2.37;;;1.50;;
10805;SDS011;5455;53.224;6.000;2023-04-24T00:07:12;2.10;;;1.90;;
10805;SDS011;5455;53.224;6.000;2023-04-24T00:09:39;2.43;;;1.90;;
10805;SDS011;5455;53.224;6.000;2023-04-24T00:12:07;2.70;;;1.77;;
10805;SDS011;5455;53.224;6.000;2023-04-24T00:14:34;1.87;;;1.73;;
10805;SDS011;5455;53.224;6.000;2023-04-24T00:17:02;2.03;;;1.73;;
10805;SDS011;5455;53.224;6.000;2023-04-24T00:19:29;4.43;;;2.20;;
10805;SDS011;5455;53.224;6.000;2023-04-24T00:21:56;2.30;;;1.70;;
10805;SDS011;5455;53.224;6.000;2023-04-24T00:24:23;2.73;;;1.90;;
10805;SDS011;5455;53.224;6.000;2023-04-24T00:26:50;1.80;;;1.70;;
10805;SDS011;5455;53.224;6.000;2023-04-24T00:29:17;3.43;;;2.03;;
10805;SDS011;5455;53.224;6.000;2023-04-24T00:31:44;2.83;;;1.87;;
10805;SDS011;5455;53.224;6.000;2023-04-24T00:34:13;3.23;;;1.90;;
10805;SDS011;5455;53.224;6.000;2023-04-24T00:36:41;2.40;;;1.60;;
10805;SDS011;5455;53.224;6.000;2023-04-24T00:39:08;3.03;;;1.80;;
10805;SDS011;5455;53.224;6.000;2023-04-24T00:41:35;2.60;;;1.87;;
10805;SDS011;5455;53.224;6.000;2023-04-24T00:44:02;2.10;;;1.83;;
10805;SDS011;5455;53.224;6.000;2023-04-24T00:46:29;2.30;;;1.80;;
10805;SDS011;5455;53.224;6.000;2023-04-24T00:48:59;2.50;;;1.43;;
10805;SDS011;5455;53.224;6.000;2023-04-24T00:51:26;1.50;;;1.40;;
10805;SDS011;5455;53.224;6.000;2023-04-24T00:53:53;1.90;;;1.67;;
10805;SDS011;5455;53.224;6.000;2023-04-24T00:56:21;1.97;;;1.43;;
10805;SDS011;5455;53.224;6.000;2023-04-24T00:58:48;2.20;;;1.57;;
10805;SDS011;5455;53.224;6.000;2023-04-24T01:01:15;2.27;;;1.57;;
10805;SDS011;5455;53.224;6.000;2023-04-24T01:03:42;1.90;;;1.40;;
10805;SDS011;5455;53.224;6.000;2023-04-24T01:06:10;2.03;;;1.37;;
10805;SDS011;5455;53.224;6.000;2023-04-24T01:08:37;2.13;;;1.33;;
10805;SDS011;5455;53.224;6.000;2023-04-24T01:11:06;1.43;;;1.30;;
10805;SDS011;5455;53.224;6.000;2023-04-24T01:13:33;2.13;;;1.40;;
10805;SDS011;5455;53.224;6.000;2023-04-24T01:16:02;1.63;;;1.53;;
10805;SDS011;5455;53.224;6.000;2023-04-24T01:18:29;1.80;;;1.70;;
10805;SDS011;5455;53.224;6.000;2023-04-24T01:20:57;2.47;;;1.70;;
10805;SDS011;5455;53.224;6.000;2023-04-24T01:23:25;1.73;;;1.50;;
10805;SDS011;5455;53.224;6.000;2023-04-24T01:25:52;1.70;;;1.60;;
10805;SDS011;5455;53.224;6.000;2023-04-24T01:28:19;2.03;;;1.60;;
10805;SDS011;5455;53.224;6.000;2023-04-24T01:30:47;1.67;;;1.50;;
10805;SDS011;5455;53.224;6.000;2023-04-24T01:33:14;2.00;;;1.53;;
10805;SDS011;5455;53.224;6.000;2023-04-24T01:35:42;2.10;;;1.80;;
10805;SDS011;5455;53.224;6.000;2023-04-24T01:38:09;2.30;;;2.10;;
10805;SDS011;5455;53.224;6.000;2023-04-24T01:40:36;3.00;;;2.10;;
10805;SDS011;5455;53.224;6.000;2023-04-24T01:43:03;2.17;;;1.97;;
10805;SDS011;5455;53.224;6.000;2023-04-24T01:45:30;2.30;;;2.10;;
10805;SDS011;5455;53.224;6.000;2023-04-24T01:47:57;2.37;;;2.17;;
10805;SDS011;5455;53.224;6.000;2023-04-24T01:50:24;2.23;;;2.03;;
10805;SDS011;5455;53.224;6.000;2023-04-24T01:52:51;2.57;;;2.20;;
10805;SDS011;5455;53.224;6.000;2023-04-24T01:55:19;2.13;;;1.93;;
10805;SDS011;5455;53.224;6.000;2023-04-24T01:57:46;3.60;;;2.20;;
10805;SDS011;5455;53.224;6.000;2023-04-24T02:00:13;2.37;;;1.97;;
10805;SDS011;5455;53.224;6.000;2023-04-24T02:02:41;2.30;;;2.10;;
10805;SDS011;5455;53.224;6.000;2023-04-24T02:05:12;2.57;;;2.37;;
10805;SDS011;5455;53.224;6.000;2023-04-24T02:07:38;4.00;;;2.63;;
10805;SDS011;5455;53.224;6.000;2023-04-24T02:10:08;2.70;;;2.27;;
10805;SDS011;5455;53.224;6.000;2023-04-24T02:12:35;2.50;;;2.30;;
10805;SDS011;5455;53.224;6.000;2023-04-24T02:15:03;3.97;;;2.47;;
10805;SDS011;5455;53.224;6.000;2023-04-24T02:17:30;4.43;;;2.20;;
10805;SDS011;5455;53.224;6.000;2023-04-24T02:19:57;4.00;;;2.37;;
10805;SDS011;5455;53.224;6.000;2023-04-24T02:22:24;2.70;;;2.50;;
10805;SDS011;5455;53.224;6.000;2023-04-24T02:24:51;2.73;;;2.00;;
10805;SDS011;5455;53.224;6.000;2023-04-24T02:27:18;2.27;;;2.07;;
10805;SDS011;5455;53.224;6.000;2023-04-24T02:29:45;3.53;;;2.50;;
10805;SDS011;5455;53.224;6.000;2023-04-24T02:32:12;2.70;;;2.50;;
10805;SDS011;5455;53.224;6.000;2023-04-24T02:34:42;2.70;;;2.50;;
10805;SDS011;5455;53.224;6.000;2023-04-24T02:37:11;2.73;;;2.50;;
10805;SDS011;5455;53.224;6.000;2023-04-24T02:39:38;2.40;;;2.20;;
10805;SDS011;5455;53.224;6.000;2023-04-24T02:42:05;3.00;;;2.40;;
10805;SDS011;5455;53.224;6.000;2023-04-24T02:44:34;3.00;;;2.70;;
10805;SDS011;5455;53.224;6.000;2023-04-24T02:47:01;2.77;;;2.53;;
10805;SDS011;5455;53.224;6.000;2023-04-24T02:49:29;2.63;;;2.13;;
10805;SDS011;5455;53.224;6.000;2023-04-24T02:51:57;2.87;;;2.50;;
10805;SDS011;5455;53.224;6.000;2023-04-24T02:54:24;2.80;;;2.57;;
10805;SDS011;5455;53.224;6.000;2023-04-24T02:56:51;3.83;;;2.70;;
10805;SDS011;5455;53.224;6.000;2023-04-24T02:59:18;2.93;;;2.53;;
10805;SDS011;5455;53.224;6.000;2023-04-24T03:01:45;2.67;;;2.47;;
10805;SDS011;5455;53.224;6.000;2023-04-24T03:04:12;2.90;;;2.60;;
10805;SDS011;5455;53.224;6.000;2023-04-24T03:06:40;3.00;;;2.67;;
10805;SDS011;5455;53.224;6.000;2023-04-24T03:09:06;2.87;;;2.57;;
10805;SDS011;5455;53.224;6.000;2023-04-24T03:11:33;2.27;;;2.07;;
10805;SDS011;5455;53.224;6.000;2023-04-24T03:14:01;2.23;;;1.90;;
10805;SDS011;5455;53.224;6.000;2023-04-24T03:16:28;2.70;;;1.93;;
10805;SDS011;5455;53.224;6.000;2023-04-24T03:18:55;1.27;;;1.07;;
10805;SDS011;5455;53.224;6.000;2023-04-24T03:21:25;1.73;;;1.30;;
10805;SDS011;5455;53.224;6.000;2023-04-24T03:23:53;1.60;;;0.93;;
10805;SDS011;5455;53.224;6.000;2023-04-24T03:26:20;2.07;;;0.80;;
10805;SDS011;5455;53.224;6.000;2023-04-24T03:29:13;1.83;;;0.60;;
10805;SDS011;5455;53.224;6.000;2023-04-24T03:31:41;0.70;;;0.40;;
10805;SDS011;5455;53.224;6.000;2023-04-24T03:34:08;1.13;;;0.50;;
10805;SDS011;5455;53.224;6.000;2023-04-24T03:36:36;0.83;;;0.40;;
10805;SDS011;5455;53.224;6.000;2023-04-24T03:39:05;0.53;;;0.30;;
10805;SDS011;5455;53.224;6.000;2023-04-24T03:41:36;0.47;;;0.33;;
10805;SDS011;5455;53.224;6.000;2023-04-24T03:44:12;0.83;;;0.30;;
10805;SDS011;5455;53.224;6.000;2023-04-24T03:46:40;0.50;;;0.40;;
10805;SDS011;5455;53.224;6.000;2023-04-24T03:49:07;0.37;;;0.37;;
10805;SDS011;5455;53.224;6.000;2023-04-24T03:51:38;0.30;;;0.30;;
10805;SDS011;5455;53.224;6.000;2023-04-24T03:54:19;0.67;;;0.33;;
10805;SDS011;5455;53.224;6.000;2023-04-24T03:56:46;0.10;;;0.10;;
10805;SDS011;5455;53.224;6.000;2023-04-24T03:59:13;1.03;;;0.50;;
10805;SDS011;5455;53.224;6.000;2023-04-24T04:01:44;0.20;;;0.20;;
10805;SDS011;5455;53.224;6.000;2023-04-24T04:04:14;0.97;;;0.30;;
10805;SDS011;5455;53.224;6.000;2023-04-24T04:06:43;0.40;;;0.40;;
10805;SDS011;5455;53.224;6.000;2023-04-24T04:09:13;0.83;;;0.40;;
10805;SDS011;5455;53.224;6.000;2023-04-24T04:11:40;0.53;;;0.53;;
10805;SDS011;5455;53.224;6.000;2023-04-24T04:14:07;1.17;;;0.60;;
10805;SDS011;5455;53.224;6.000;2023-04-24T04:16:37;0.80;;;0.80;;
10805;SDS011;5455;53.224;6.000;2023-04-24T04:19:06;1.30;;;0.77;;
10805;SDS011;5455;53.224;6.000;2023-04-24T04:21:34;0.60;;;0.50;;
10805;SDS011;5455;53.224;6.000;2023-04-24T04:24:11;1.83;;;0.50;;
10805;SDS011;5455;53.224;6.000;2023-04-24T04:26:43;0.93;;;0.40;;
10805;SDS011;5455;53.224;6.000;2023-04-24T04:29:22;0.37;;;0.33;;
10805;SDS011;5455;53.224;6.000;2023-04-24T04:31:51;0.83;;;0.40;;
10805;SDS011;5455;53.224;6.000;2023-04-24T04:34:20;0.73;;;0.60;;
10805;SDS011;5455;53.224;6.000;2023-04-24T04:36:47;1.50;;;0.97;;
10805;SDS011;5455;53.224;6.000;2023-04-24T04:39:34;1.70;;;1.33;;
10805;SDS011;5455;53.224;6.000;2023-04-24T04:42:05;2.20;;;1.30;;
10805;SDS011;5455;53.224;6.000;2023-04-24T04:44:38;1.87;;;1.10;;
10805;SDS011;5455;53.224;6.000;2023-04-24T04:47:09;0.77;;;0.67;;
10805;SDS011;5455;53.224;6.000;2023-04-24T04:49:38;1.93;;;0.93;;
10805;SDS011;5455;53.224;6.000;2023-04-24T04:52:10;1.37;;;1.20;;
10805;SDS011;5455;53.224;6.000;2023-04-24T04:54:37;1.30;;;1.10;;
10805;SDS011;5455;53.224;6.000;2023-04-24T04:57:05;1.70;;;1.50;;
10805;SDS011;5455;53.224;6.000;2023-04-24T04:59:35;3.77;;;1.60;;
10805;SDS011;5455;53.224;6.000;2023-04-24T05:02:05;2.80;;;1.40;;
10805;SDS011;5455;53.224;6.000;2023-04-24T05:04:33;3.03;;;1.50;;
10805;SDS011;5455;53.224;6.000;2023-04-24T05:07:00;2.43;;;1.57;;
10805;SDS011;5455;53.224;6.000;2023-04-24T05:09:30;1.33;;;1.20;;
10805;SDS011;5455;53.224;6.000;2023-04-24T05:12:01;3.37;;;1.63;;
10805;SDS011;5455;53.224;6.000;2023-04-24T05:14:33;3.50;;;1.63;;
10805;SDS011;5455;53.224;6.000;2023-04-24T05:17:00;2.20;;;1.90;;
10805;SDS011;5455;53.224;6.000;2023-04-24T05:19:28;3.80;;;2.20;;
10805;SDS011;5455;53.224;6.000;2023-04-24T05:21:55;2.60;;;1.90;;
10805;SDS011;5455;53.224;6.000;2023-04-24T05:24:23;5.37;;;2.90;;
10805;SDS011;5455;53.224;6.000;2023-04-24T05:27:09;3.43;;;2.53;;
10805;SDS011;5455;53.224;6.000;2023-04-24T05:29:40;3.20;;;2.37;;
10805;SDS011;5455;53.224;6.000;2023-04-24T05:32:08;3.10;;;1.80;;
10805;SDS011;5455;53.224;6.000;2023-04-24T05:34:35;1.40;;;1.30;;
10805;SDS011;5455;53.224;6.000;2023-04-24T05:37:02;1.57;;;1.23;;
10805;SDS011;5455;53.224;6.000;2023-04-24T05:39:31;2.10;;;1.00;;
10805;SDS011;5455;53.224;6.000;2023-04-24T05:41:58;2.17;;;0.97;;
10805;SDS011;5455;53.224;6.000;2023-04-24T05:44:27;2.50;;;1.10;;
10805;SDS011;5455;53.224;6.000;2023-04-24T05:46:54;1.93;;;0.90;;
10805;SDS011;5455;53.224;6.000;2023-04-24T05:49:22;1.10;;;0.70;;
10805;SDS011;5455;53.224;6.000;2023-04-24T05:51:49;2.23;;;0.80;;
10805;SDS011;5455;53.224;6.000;2023-04-24T05:54:17;3.77;;;0.77;;
10805;SDS011;5455;53.224;6.000;2023-04-24T05:56:44;1.67;;;0.60;;
10805;SDS011;5455;53.224;6.000;2023-04-24T05:59:19;1.73;;;0.70;;
10805;SDS011;5455;53.224;6.000;2023-04-24T06:01:47;2.40;;;0.60;;
10805;SDS011;5455;53.224;6.000;2023-04-24T06:04:18;1.20;;;0.50;;
10805;SDS011;5455;53.224;6.000;2023-04-24T06:06:45;1.90;;;0.60;;
10805;SDS011;5455;53.224;6.000;2023-04-24T06:09:12;1.27;;;0.60;;
10805;SDS011;5455;53.224;6.000;2023-04-24T06:11:39;1.23;;;0.53;;
10805;SDS011;5455;53.224;6.000;2023-04-24T06:14:12;1.17;;;0.40;;
10805;SDS011;5455;53.224;6.000;2023-04-24T06:16:40;1.20;;;0.70;;
10805;SDS011;5455;53.224;6.000;2023-04-24T06:19:28;0.63;;;0.57;;
10805;SDS011;5455;53.224;6.000;2023-04-24T06:21:55;2.07;;;0.60;;
10805;SDS011;5455;53.224;6.000;2023-04-24T06:24:26;3.23;;;0.83;;
10805;SDS011;5455;53.224;6.000;2023-04-24T06:26:54;0.93;;;0.60;;
10805;SDS011;5455;53.224;6.000;2023-04-24T06:29:21;0.63;;;0.60;;
10805;SDS011;5455;53.224;6.000;2023-04-24T06:31:49;0.93;;;0.63;;
10805;SDS011;5455;53.224;6.000;2023-04-24T06:34:16;0.90;;;0.50;;
10805;SDS011;5455;53.224;6.000;2023-04-24T06:36:43;1.87;;;0.60;;
10805;SDS011;5455;53.224;6.000;2023-04-24T06:39:10;2.00;;;0.73;;
10805;SDS011;5455;53.224;6.000;2023-04-24T06:41:37;1.67;;;0.70;;
10805;SDS011;5455;53.224;6.000;2023-04-24T06:44:04;2.57;;;1.00;;
10805;SDS011;5455;53.224;6.000;2023-04-24T06:46:31;3.57;;;0.83;;
10805;SDS011;5455;53.224;6.000;2023-04-24T06:48:58;1.40;;;1.00;;
10805;SDS011;5455;53.224;6.000;2023-04-24T06:51:26;2.50;;;1.40;;
10805;SDS011;5455;53.224;6.000;2023-04-24T06:53:54;4.73;;;2.17;;
10805;SDS011;5455;53.224;6.000;2023-04-24T06:56:22;2.60;;;1.80;;
10805;SDS011;5455;53.224;6.000;2023-04-24T06:58:50;5.63;;;2.13;;
10805;SDS011;5455;53.224;6.000;2023-04-24T07:01:17;4.03;;;3.10;;
10805;SDS011;5455;53.224;6.000;2023-04-24T07:03:44;7.87;;;3.50;;
10805;SDS011;5455;53.224;6.000;2023-04-24T07:06:11;5.03;;;3.13;;
10805;SDS011;5455;53.224;6.000;2023-04-24T07:08:39;8.77;;;4.40;;
10805;SDS011;5455;53.224;6.000;2023-04-24T07:11:06;10.93;;;4.80;;
10805;SDS011;5455;53.224;6.000;2023-04-24T07:13:34;6.07;;;4.03;;
10805;SDS011;5455;53.224;6.000;2023-04-24T07:16:01;7.97;;;4.53;;
10805;SDS011;5455;53.224;6.000;2023-04-24T07:18:29;9.50;;;5.20;;
10805;SDS011;5455;53.224;6.000;2023-04-24T07:20:57;5.73;;;3.73;;
10805;SDS011;5455;53.224;6.000;2023-04-24T07:23:24;7.20;;;3.90;;
10805;SDS011;5455;53.224;6.000;2023-04-24T07:25:51;10.03;;;4.03;;
10805;SDS011;5455;53.224;6.000;2023-04-24T07:28:18;9.10;;;4.53;;
10805;SDS011;5455;53.224;6.000;2023-04-24T07:30:45;7.87;;;4.77;;
10805;SDS011;5455;53.224;6.000;2023-04-24T07:33:12;7.60;;;4.77;;
10805;SDS011;5455;53.224;6.000;2023-04-24T07:35:39;10.27;;;5.20;;
10805;SDS011;5455;53.224;6.000;2023-04-24T07:38:07;12.73;;;5.07;;
10805;SDS011;5455;53.224;6.000;2023-04-24T07:40:33;6.80;;;4.80;;
10805;SDS011;5455;53.224;6.000;2023-04-24T07:43:00;10.00;;;5.07;;
10805;SDS011;5455;53.224;6.000;2023-04-24T07:45:27;8.80;;;4.87;;
10805;SDS011;5455;53.224;6.000;2023-04-24T07:47:54;11.00;;;5.30;;
10805;SDS011;5455;53.224;6.000;2023-04-24T07:50:21;10.90;;;5.10;;
10805;SDS011;5455;53.224;6.000;2023-04-24T07:52:48;10.43;;;5.20;;
10805;SDS011;5455;53.224;6.000;2023-04-24T07:55:15;9.87;;;4.83;;
10805;SDS011;5455;53.224;6.000;2023-04-24T07:57:42;9.63;;;5.80;;
10805;SDS011;5455;53.224;6.000;2023-04-24T08:00:09;9.63;;;4.93;;
10805;SDS011;5455;53.224;6.000;2023-04-24T08:02:37;6.97;;;4.03;;
10805;SDS011;5455;53.224;6.000;2023-04-24T08:05:04;8.73;;;4.17;;
10805;SDS011;5455;53.224;6.000;2023-04-24T08:07:32;9.43;;;3.60;;
10805;SDS011;5455;53.224;6.000;2023-04-24T08:09:59;6.90;;;3.33;;
10805;SDS011;5455;53.224;6.000;2023-04-24T08:12:27;3.43;;;3.03;;
10805;SDS011;5455;53.224;6.000;2023-04-24T08:14:55;4.47;;;3.27;;
10805;SDS011;5455;53.224;6.000;2023-04-24T08:17:22;4.93;;;2.40;;
10805;SDS011;5455;53.224;6.000;2023-04-24T08:19:48;5.17;;;2.77;;
10805;SDS011;5455;53.224;6.000;2023-04-24T08:22:17;8.43;;;2.97;;
10805;SDS011;5455;53.224;6.000;2023-04-24T08:24:44;6.47;;;2.37;;
10805;SDS011;5455;53.224;6.000;2023-04-24T08:27:11;4.73;;;2.80;;
10805;SDS011;5455;53.224;6.000;2023-04-24T08:29:38;5.07;;;2.70;;
10805;SDS011;5455;53.224;6.000;2023-04-24T08:32:05;5.03;;;2.20;;
10805;SDS011;5455;53.224;6.000;2023-04-24T08:34:32;4.97;;;2.57;;
10805;SDS011;5455;53.224;6.000;2023-04-24T08:36:59;6.23;;;3.00;;
10805;SDS011;5455;53.224;6.000;2023-04-24T08:39:26;5.10;;;2.70;;
10805;SDS011;5455;53.224;6.000;2023-04-24T08:41:55;5.87;;;2.70;;
10805;SDS011;5455;53.224;6.000;2023-04-24T08:44:22;6.63;;;2.40;;
10805;SDS011;5455;53.224;6.000;2023-04-24T08:46:49;5.20;;;2.50;;
10805;SDS011;5455;53.224;6.000;2023-04-24T08:49:18;6.03;;;2.80;;
10805;SDS011;5455;53.224;6.000;2023-04-24T08:51:45;4.77;;;2.57;;
10805;SDS011;5455;53.224;6.000;2023-04-24T08:54:14;4.37;;;2.70;;
10805;SDS011;5455;53.224;6.000;2023-04-24T08:56:42;5.30;;;2.40;;
10805;SDS011;5455;53.224;6.000;2023-04-24T08:59:11;6.70;;;2.57;;
10805;SDS011;5455;53.224;6.000;2023-04-24T09:01:39;8.37;;;2.30;;
10805;SDS011;5455;53.224;6.000;2023-04-24T09:04:08;4.60;;;1.83;;
10805;SDS011;5455;53.224;6.000;2023-04-24T09:06:38;6.00;;;2.50;;
10805;SDS011;5455;53.224;6.000;2023-04-24T09:09:05;5.37;;;1.70;;
10805;SDS011;5455;53.224;6.000;2023-04-24T09:11:32;6.27;;;1.73;;
10805;SDS011;5455;53.224;6.000;2023-04-24T09:13:59;4.17;;;1.63;;
10805;SDS011;5455;53.224;6.000;2023-04-24T09:16:27;5.37;;;1.50;;
10805;SDS011;5455;53.224;6.000;2023-04-24T09:18:56;5.53;;;1.87;;
10805;SDS011;5455;53.224;6.000;2023-04-24T09:21:23;6.53;;;1.53;;
10805;SDS011;5455;53.224;6.000;2023-04-24T09:24:06;4.13;;;1.47;;
10805;SDS011;5455;53.224;6.000;2023-04-24T09:26:40;6.07;;;1.50;;
10805;SDS011;5455;53.224;6.000;2023-04-24T09:29:13;3.60;;;1.60;;
10805;SDS011;5455;53.224;6.000;2023-04-24T09:31:44;8.73;;;1.60;;
10805;SDS011;5455;53.224;6.000;2023-04-24T09:34:12;6.33;;;1.70;;
10805;SDS011;5455;53.224;6.000;2023-04-24T09:36:42;6.60;;;1.70;;
10805;SDS011;5455;53.224;6.000;2023-04-24T09:39:14;4.20;;;1.50;;
10805;SDS011;5455;53.224;6.000;2023-04-24T09:41:52;6.13;;;1.43;;
10805;SDS011;5455;53.224;6.000;2023-04-24T09:44:21;5.70;;;1.40;;
10805;SDS011;5455;53.224;6.000;2023-04-24T09:46:55;4.80;;;1.80;;
10805;SDS011;5455;53.224;6.000;2023-04-24T09:49:25;6.30;;;1.80;;
10805;SDS011;5455;53.224;6.000;2023-04-24T09:52:02;4.50;;;1.37;;
10805;SDS011;5455;53.224;6.000;2023-04-24T09:54:31;5.43;;;1.57;;
10805;SDS011;5455;53.224;6.000;2023-04-24T09:56:57;3.70;;;1.17;;
10805;SDS011;5455;53.224;6.000;2023-04-24T09:59:26;2.30;;;1.07;;
10805;SDS011;5455;53.224;6.000;2023-04-24T10:01:54;4.77;;;1.30;;
10805;SDS011;5455;53.224;6.000;2023-04-24T10:04:24;5.33;;;1.47;;
10805;SDS011;5455;53.224;6.000;2023-04-24T10:06:53;4.93;;;1.87;;
10805;SDS011;5455;53.224;6.000;2023-04-24T10:09:22;5.43;;;1.47;;
10805;SDS011;5455;53.224;6.000;2023-04-24T10:11:51;4.63;;;1.93;;
10805;SDS011;5455;53.224;6.000;2023-04-24T10:14:21;6.30;;;1.60;;
10805;SDS011;5455;53.224;6.000;2023-04-24T10:16:49;6.03;;;1.20;;
10805;SDS011;5455;53.224;6.000;2023-04-24T10:19:19;8.93;;;1.43;;
10805;SDS011;5455;53.224;6.000;2023-04-24T10:21:46;3.83;;;1.30;;
10805;SDS011;5455;53.224;6.000;2023-04-24T10:24:14;3.13;;;0.90;;
10805;SDS011;5455;53.224;6.000;2023-04-24T10:26:43;4.30;;;1.00;;
10805;SDS011;5455;53.224;6.000;2023-04-24T10:29:11;5.37;;;1.20;;
10805;SDS011;5455;53.224;6.000;2023-04-24T10:31:39;2.97;;;0.90;;
10805;SDS011;5455;53.224;6.000;2023-04-24T10:34:07;3.53;;;1.00;;
10805;SDS011;5455;53.224;6.000;2023-04-24T10:36:36;3.80;;;0.97;;
10805;SDS011;5455;53.224;6.000;2023-04-24T10:39:08;4.87;;;1.00;;
10805;SDS011;5455;53.224;6.000;2023-04-24T10:41:38;6.97;;;1.30;;
10805;SDS011;5455;53.224;6.000;2023-04-24T10:46:36;6.13;;;1.00;;
10805;SDS011;5455;53.224;6.000;2023-04-24T10:49:05;3.93;;;1.13;;
10805;SDS011;5455;53.224;6.000;2023-04-24T10:51:51;4.83;;;1.30;;
10805;SDS011;5455;53.224;6.000;2023-04-24T10:54:29;6.33;;;1.27;;
10805;SDS011;5455;53.224;6.000;2023-04-24T11:00:10;4.30;;;0.90;;
10805;SDS011;5455;53.224;6.000;2023-04-24T11:02:41;5.53;;;0.90;;
10805;SDS011;5455;53.224;6.000;2023-04-24T11:05:16;4.63;;;1.03;;
10805;SDS011;5455;53.224;6.000;2023-04-24T11:10:45;3.00;;;0.57;;
10805;SDS011;5455;53.224;6.000;2023-04-24T11:13:16;3.03;;;0.80;;
10805;SDS011;5455;53.224;6.000;2023-04-24T11:15:44;1.43;;;0.53;;
10805;SDS011;5455;53.224;6.000;2023-04-24T11:18:14;2.40;;;0.70;;
10805;SDS011;5455;53.224;6.000;2023-04-24T11:20:43;4.63;;;0.73;;
10805;SDS011;5455;53.224;6.000;2023-04-24T11:23:12;3.33;;;1.07;;
10805;SDS011;5455;53.224;6.000;2023-04-24T11:25:40;2.60;;;0.60;;
10805;SDS011;5455;53.224;6.000;2023-04-24T11:28:08;1.33;;;0.63;;
10805;SDS011;5455;53.224;6.000;2023-04-24T11:30:42;1.67;;;0.60;;
10805;SDS011;5455;53.224;6.000;2023-04-24T11:33:09;2.53;;;0.60;;
10805;SDS011;5455;53.224;6.000;2023-04-24T11:35:39;4.20;;;0.80;;
10805;SDS011;5455;53.224;6.000;2023-04-24T11:38:07;1.40;;;0.70;;
10805;SDS011;5455;53.224;6.000;2023-04-24T11:40:38;0.73;;;0.40;;
10805;SDS011;5455;53.224;6.000;2023-04-24T11:43:06;1.80;;;0.60;;
10805;SDS011;5455;53.224;6.000;2023-04-24T11:45:33;2.10;;;0.57;;
10805;SDS011;5455;53.224;6.000;2023-04-24T11:48:02;3.10;;;0.40;;
10805;SDS011;5455;53.224;6.000;2023-04-24T11:50:30;1.57;;;0.40;;
10805;SDS011;5455;53.224;6.000;2023-04-24T11:52:57;4.23;;;0.77;;
10805;SDS011;5455;53.224;6.000;2023-04-24T11:55:27;0.83;;;0.40;;
10805;SDS011;5455;53.224;6.000;2023-04-24T11:57:56;1.60;;;0.60;;
10805;SDS011;5455;53.224;6.000;2023-04-24T12:00:26;3.33;;;0.70;;
10805;SDS011;5455;53.224;6.000;2023-04-24T12:03:10;4.97;;;0.90;;
10805;SDS011;5455;53.224;6.000;2023-04-24T12:05:39;1.27;;;0.63;;
10805;SDS011;5455;53.224;6.000;2023-04-24T12:08:07;3.37;;;0.77;;
10805;SDS011;5455;53.224;6.000;2023-04-24T12:10:34;2.37;;;0.60;;
10805;SDS011;5455;53.224;6.000;2023-04-24T12:13:02;2.77;;;0.57;;
10805;SDS011;5455;53.224;6.000;2023-04-24T12:15:29;2.23;;;0.63;;
10805;SDS011;5455;53.224;6.000;2023-04-24T12:17:56;5.80;;;0.70;;
10805;SDS011;5455;53.224;6.000;2023-04-24T12:20:28;5.20;;;0.87;;
10805;SDS011;5455;53.224;6.000;2023-04-24T12:22:58;3.40;;;0.50;;
10805;SDS011;5455;53.224;6.000;2023-04-24T12:25:26;0.90;;;0.40;;
10805;SDS011;5455;53.224;6.000;2023-04-24T12:27:55;1.70;;;0.50;;
10805;SDS011;5455;53.224;6.000;2023-04-24T12:30:41;0.93;;;0.40;;
10805;SDS011;5455;53.224;6.000;2023-04-24T12:33:10;0.70;;;0.30;;
10805;SDS011;5455;53.224;6.000;2023-04-24T12:35:39;1.57;;;0.50;;
10805;SDS011;5455;53.224;6.000;2023-04-24T12:38:11;1.93;;;0.20;;
10805;SDS011;5455;53.224;6.000;2023-04-24T12:40:40;1.73;;;0.50;;
10805;SDS011;5455;53.224;6.000;2023-04-24T12:43:17;2.07;;;0.70;;
10805;SDS011;5455;53.224;6.000;2023-04-24T12:45:46;2.47;;;0.60;;
10805;SDS011;5455;53.224;6.000;2023-04-24T12:48:14;1.33;;;0.30;;
10805;SDS011;5455;53.224;6.000;2023-04-24T12:50:41;0.67;;;0.30;;
10805;SDS011;5455;53.224;6.000;2023-04-24T12:53:12;3.27;;;0.60;;
10805;SDS011;5455;53.224;6.000;2023-04-24T12:55:39;3.40;;;0.30;;
10805;SDS011;5455;53.224;6.000;2023-04-24T12:58:06;4.30;;;0.40;;
10805;SDS011;5455;53.224;6.000;2023-04-24T13:00:33;1.33;;;0.37;;
10805;SDS011;5455;53.224;6.000;2023-04-24T13:03:00;3.87;;;0.50;;
10805;SDS011;5455;53.224;6.000;2023-04-24T13:05:28;2.60;;;0.30;;
10805;SDS011;5455;53.224;6.000;2023-04-24T13:07:55;2.57;;;0.37;;
10805;SDS011;5455;53.224;6.000;2023-04-24T13:10:23;2.40;;;0.53;;
10805;SDS011;5455;53.224;6.000;2023-04-24T13:12:50;0.97;;;0.60;;
10805;SDS011;5455;53.224;6.000;2023-04-24T13:15:17;2.50;;;0.60;;
10805;SDS011;5455;53.224;6.000;2023-04-24T13:17:45;2.93;;;0.60;;
10805;SDS011;5455;53.224;6.000;2023-04-24T13:20:12;1.60;;;0.53;;
10805;SDS011;5455;53.224;6.000;2023-04-24T13:22:39;4.60;;;0.83;;
10805;SDS011;5455;53.224;6.000;2023-04-24T13:25:06;4.40;;;0.77;;
10805;SDS011;5455;53.224;6.000;2023-04-24T13:27:34;4.13;;;0.70;;
10805;SDS011;5455;53.224;6.000;2023-04-24T13:30:01;4.97;;;1.00;;
10805;SDS011;5455;53.224;6.000;2023-04-24T13:32:29;2.67;;;0.90;;
10805;SDS011;5455;53.224;6.000;2023-04-24T13:34:56;2.33;;;0.70;;
10805;SDS011;5455;53.224;6.000;2023-04-24T13:37:23;4.70;;;1.20;;
10805;SDS011;5455;53.224;6.000;2023-04-24T13:39:50;4.13;;;1.33;;
10805;SDS011;5455;53.224;6.000;2023-04-24T13:42:18;3.87;;;1.10;;
10805;SDS011;5455;53.224;6.000;2023-04-24T13:44:46;4.70;;;0.87;;
10805;SDS011;5455;53.224;6.000;2023-04-24T13:47:13;5.83;;;1.00;;
10805;SDS011;5455;53.224;6.000;2023-04-24T13:49:40;4.23;;;1.07;;
10805;SDS011;5455;53.224;6.000;2023-04-24T13:52:08;2.87;;;0.90;;
10805;SDS011;5455;53.224;6.000;2023-04-24T13:54:36;3.30;;;0.90;;
10805;SDS011;5455;53.224;6.000;2023-04-24T13:57:03;2.87;;;0.60;;
10805;SDS011;5455;53.224;6.000;2023-04-24T13:59:31;2.07;;;0.70;;
10805;SDS011;5455;53.224;6.000;2023-04-24T14:01:58;3.50;;;0.70;;
10805;SDS011;5455;53.224;6.000;2023-04-24T14:04:26;1.77;;;0.97;;
10805;SDS011;5455;53.224;6.000;2023-04-24T14:06:54;2.83;;;0.63;;
10805;SDS011;5455;53.224;6.000;2023-04-24T14:09:20;2.17;;;0.67;;
10805;SDS011;5455;53.224;6.000;2023-04-24T14:11:49;2.27;;;0.90;;
10805;SDS011;5455;53.224;6.000;2023-04-24T14:14:18;3.60;;;1.20;;
10805;SDS011;5455;53.224;6.000;2023-04-24T14:16:44;6.33;;;0.90;;
10805;SDS011;5455;53.224;6.000;2023-04-24T14:19:12;4.23;;;1.00;;
10805;SDS011;5455;53.224;6.000;2023-04-24T14:21:39;4.87;;;1.20;;
10805;SDS011;5455;53.224;6.000;2023-04-24T14:24:06;5.13;;;1.10;;
10805;SDS011;5455;53.224;6.000;2023-04-24T14:26:33;3.80;;;0.90;;
10805;SDS011;5455;53.224;6.000;2023-04-24T14:29:00;4.93;;;1.30;;
10805;SDS011;5455;53.224;6.000;2023-04-24T14:31:30;4.73;;;1.00;;
10805;SDS011;5455;53.224;6.000;2023-04-24T14:33:57;7.93;;;1.50;;
10805;SDS011;5455;53.224;6.000;2023-04-24T14:36:25;8.00;;;1.50;;
10805;SDS011;5455;53.224;6.000;2023-04-24T14:38:51;4.10;;;1.30;;
10805;SDS011;5455;53.224;6.000;2023-04-24T14:41:18;4.70;;;1.93;;
10805;SDS011;5455;53.224;6.000;2023-04-24T14:43:45;3.73;;;1.37;;
10805;SDS011;5455;53.224;6.000;2023-04-24T14:46:13;3.50;;;1.17;;
10805;SDS011;5455;53.224;6.000;2023-04-24T14:48:40;7.07;;;1.63;;
10805;SDS011;5455;53.224;6.000;2023-04-24T14:51:07;7.20;;;1.37;;
10805;SDS011;5455;53.224;6.000;2023-04-24T14:53:34;6.50;;;1.40;;
10805;SDS011;5455;53.224;6.000;2023-04-24T14:56:01;2.73;;;0.93;;
10805;SDS011;5455;53.224;6.000;2023-04-24T14:58:28;3.67;;;1.50;;
10805;SDS011;5455;53.224;6.000;2023-04-24T15:00:55;3.37;;;1.10;;
10805;SDS011;5455;53.224;6.000;2023-04-24T15:03:22;3.87;;;1.00;;
10805;SDS011;5455;53.224;6.000;2023-04-24T15:05:50;4.60;;;1.13;;
10805;SDS011;5455;53.224;6.000;2023-04-24T15:08:17;2.67;;;1.00;;
10805;SDS011;5455;53.224;6.000;2023-04-24T15:10:45;4.73;;;1.50;;
10805;SDS011;5455;53.224;6.000;2023-04-24T15:13:12;5.60;;;1.50;;
10805;SDS011;5455;53.224;6.000;2023-04-24T15:15:38;4.37;;;1.70;;
10805;SDS011;5455;53.224;6.000;2023-04-24T15:18:07;5.00;;;1.80;;